sensor_id;sensor_type;location;lat;lon;timestamp;temperature;humidity
20366;DHT22;10341;49.894;8.822;2024-01-30T00:01:41;0.00;99.90
20366;DHT22;10341;49.894;8.822;2024-01-30T00:07:00;0.10;99.90
20366;DHT22;10341;49.894;8.822;2024-01-30T00:12:19;0.00;99.90
20366;DHT22;10341;49.894;8.822;2024-01-30T00:17:39;0.00;99.90
20366;DHT22;10341;49.894;8.822;2024-01-30T00:22:58;0.00;99.90
20366;DHT22;10341;49.894;8.822;2024-01-30T00:28:18;0.00;99.90
20366;DHT22;10341;49.894;8.822;2024-01-30T00:33:37;0.00;99.90
20366;DHT22;10341;49.894;8.822;2024-01-30T00:38:56;0.00;99.90
20366;DHT22;10341;49.894;8.822;2024-01-30T00:44:15;0.00;99.90
20366;DHT22;10341;49.894;8.822;2024-01-30T00:49:34;-0.10;99.90
20366;DHT22;10341;49.894;8.822;2024-01-30T00:54:53;-0.10;99.90
20366;DHT22;10341;49.894;8.822;2024-01-30T01:00:13;-0.10;99.90
20366;DHT22;10341;49.894;8.822;2024-01-30T01:05:36;-0.20;99.90
20366;DHT22;10341;49.894;8.822;2024-01-30T01:10:54;-0.10;99.90
20366;DHT22;10341;49.894;8.822;2024-01-30T01:16:14;-0.10;99.90
20366;DHT22;10341;49.894;8.822;2024-01-30T01:21:33;-0.20;99.90
20366;DHT22;10341;49.894;8.822;2024-01-30T01:26:52;-0.20;99.90
20366;DHT22;10341;49.894;8.822;2024-01-30T01:32:11;-0.20;99.90
20366;DHT22;10341;49.894;8.822;2024-01-30T01:37:30;-0.30;99.90
20366;DHT22;10341;49.894;8.822;2024-01-30T01:42:50;-0.40;99.90
20366;DHT22;10341;49.894;8.822;2024-01-30T01:48:11;-0.40;99.90
20366;DHT22;10341;49.894;8.822;2024-01-30T01:53:31;-0.50;99.90
20366;DHT22;10341;49.894;8.822;2024-01-30T01:58:54;-0.50;99.90
20366;DHT22;10341;49.894;8.822;2024-01-30T02:04:13;-0.50;99.90
20366;DHT22;10341;49.894;8.822;2024-01-30T02:09:32;-0.40;99.90
20366;DHT22;10341;49.894;8.822;2024-01-30T02:14:51;-0.40;99.90
20366;DHT22;10341;49.894;8.822;2024-01-30T02:20:12;-0.30;99.90
20366;DHT22;10341;49.894;8.822;2024-01-30T02:25:39;-0.50;99.90
20366;DHT22;10341;49.894;8.822;2024-01-30T02:31:05;-0.60;99.90
20366;DHT22;10341;49.894;8.822;2024-01-30T02:36:25;-0.60;99.90
20366;DHT22;10341;49.894;8.822;2024-01-30T02:41:51;-0.70;99.90
20366;DHT22;10341;49.894;8.822;2024-01-30T02:47:10;-0.70;99.90
20366;DHT22;10341;49.894;8.822;2024-01-30T02:52:29;-0.80;99.90
20366;DHT22;10341;49.894;8.822;2024-01-30T02:57:49;-0.80;99.90
20366;DHT22;10341;49.894;8.822;2024-01-30T03:03:08;-0.80;99.90
20366;DHT22;10341;49.894;8.822;2024-01-30T03:08:28;-0.90;99.90
20366;DHT22;10341;49.894;8.822;2024-01-30T03:13:47;-0.90;99.90
20366;DHT22;10341;49.894;8.822;2024-01-30T03:19:07;-0.90;99.90
20366;DHT22;10341;49.894;8.822;2024-01-30T03:24:27;-0.90;99.90
20366;DHT22;10341;49.894;8.822;2024-01-30T03:29:46;-1.00;99.90
20366;DHT22;10341;49.894;8.822;2024-01-30T03:35:06;-0.80;99.90
20366;DHT22;10341;49.894;8.822;2024-01-30T03:40:25;-0.80;99.90
20366;DHT22;10341;49.894;8.822;2024-01-30T03:45:44;-0.80;99.90
20366;DHT22;10341;49.894;8.822;2024-01-30T03:51:04;-0.90;99.90
20366;DHT22;10341;49.894;8.822;2024-01-30T03:56:23;-0.90;99.90
20366;DHT22;10341;49.894;8.822;2024-01-30T04:01:46;-1.00;99.90
20366;DHT22;10341;49.894;8.822;2024-01-30T04:07:05;-0.90;99.90
20366;DHT22;10341;49.894;8.822;2024-01-30T04:12:25;-0.90;99.90
20366;DHT22;10341;49.894;8.822;2024-01-30T04:17:44;-0.90;99.90
20366;DHT22;10341;49.894;8.822;2024-01-30T04:23:03;-1.00;99.90
20366;DHT22;10341;49.894;8.822;2024-01-30T04:28:22;-1.00;99.90
20366;DHT22;10341;49.894;8.822;2024-01-30T04:33:42;-1.00;99.90
20366;DHT22;10341;49.894;8.822;2024-01-30T04:39:01;-1.10;99.90
20366;DHT22;10341;49.894;8.822;2024-01-30T04:44:21;-1.10;99.90
20366;DHT22;10341;49.894;8.822;2024-01-30T04:49:41;-1.10;99.90
20366;DHT22;10341;49.894;8.822;2024-01-30T04:55:00;-1.10;99.90
20366;DHT22;10341;49.894;8.822;2024-01-30T05:00:19;-1.10;99.90
20366;DHT22;10341;49.894;8.822;2024-01-30T05:05:39;-1.10;99.90
20366;DHT22;10341;49.894;8.822;2024-01-30T05:11:00;-1.10;99.90
20366;DHT22;10341;49.894;8.822;2024-01-30T05:16:21;-1.10;99.90
20366;DHT22;10341;49.894;8.822;2024-01-30T05:21:41;-1.10;99.90
20366;DHT22;10341;49.894;8.822;2024-01-30T05:27:01;-1.10;99.90
20366;DHT22;10341;49.894;8.822;2024-01-30T05:32:20;-1.10;99.90
20366;DHT22;10341;49.894;8.822;2024-01-30T05:37:39;-1.10;99.90
20366;DHT22;10341;49.894;8.822;2024-01-30T05:42:58;-1.00;99.90
20366;DHT22;10341;49.894;8.822;2024-01-30T05:48:19;-1.10;99.90
20366;DHT22;10341;49.894;8.822;2024-01-30T05:53:39;-1.10;99.90
20366;DHT22;10341;49.894;8.822;2024-01-30T05:58:58;-1.10;99.90
20366;DHT22;10341;49.894;8.822;2024-01-30T06:04:17;-1.20;99.90
20366;DHT22;10341;49.894;8.822;2024-01-30T06:09:36;-1.20;99.90
20366;DHT22;10341;49.894;8.822;2024-01-30T06:14:55;-1.20;99.90
20366;DHT22;10341;49.894;8.822;2024-01-30T06:20:16;-1.10;99.90
20366;DHT22;10341;49.894;8.822;2024-01-30T06:25:36;-1.20;99.90
20366;DHT22;10341;49.894;8.822;2024-01-30T06:30:55;-1.20;99.90
20366;DHT22;10341;49.894;8.822;2024-01-30T06:36:15;-1.20;99.90
20366;DHT22;10341;49.894;8.822;2024-01-30T06:41:34;-1.10;99.90
20366;DHT22;10341;49.894;8.822;2024-01-30T06:46:54;-1.10;99.90
20366;DHT22;10341;49.894;8.822;2024-01-30T06:52:13;-1.10;99.90
20366;DHT22;10341;49.894;8.822;2024-01-30T06:57:33;-1.10;99.90
20366;DHT22;10341;49.894;8.822;2024-01-30T07:02:53;-1.20;99.90
20366;DHT22;10341;49.894;8.822;2024-01-30T07:08:12;-1.20;99.90
20366;DHT22;10341;49.894;8.822;2024-01-30T07:13:31;-1.10;99.90
20366;DHT22;10341;49.894;8.822;2024-01-30T07:18:50;-1.10;99.90
20366;DHT22;10341;49.894;8.822;2024-01-30T07:24:09;-1.00;99.90
20366;DHT22;10341;49.894;8.822;2024-01-30T07:29:29;-1.00;99.90
20366;DHT22;10341;49.894;8.822;2024-01-30T07:34:48;-0.80;99.90
20366;DHT22;10341;49.894;8.822;2024-01-30T07:40:07;-0.70;99.90
20366;DHT22;10341;49.894;8.822;2024-01-30T07:45:27;-0.40;99.90
20366;DHT22;10341;49.894;8.822;2024-01-30T07:50:51;0.00;99.90
20366;DHT22;10341;49.894;8.822;2024-01-30T07:56:11;0.30;99.90
20366;DHT22;10341;49.894;8.822;2024-01-30T08:01:30;0.60;99.90
20366;DHT22;10341;49.894;8.822;2024-01-30T08:06:49;0.90;99.90
20366;DHT22;10341;49.894;8.822;2024-01-30T08:12:09;1.10;99.90
20366;DHT22;10341;49.894;8.822;2024-01-30T08:17:28;1.60;99.90
20366;DHT22;10341;49.894;8.822;2024-01-30T08:22:47;2.00;99.90
20366;DHT22;10341;49.894;8.822;2024-01-30T08:28:07;2.30;99.90
20366;DHT22;10341;49.894;8.822;2024-01-30T08:33:27;2.40;99.90
20366;DHT22;10341;49.894;8.822;2024-01-30T08:38:46;2.40;99.90
20366;DHT22;10341;49.894;8.822;2024-01-30T08:44:05;2.60;99.90
20366;DHT22;10341;49.894;8.822;2024-01-30T08:49:25;2.90;99.90
20366;DHT22;10341;49.894;8.822;2024-01-30T08:54:45;3.40;99.90
20366;DHT22;10341;49.894;8.822;2024-01-30T09:00:05;3.90;99.90
20366;DHT22;10341;49.894;8.822;2024-01-30T09:05:25;4.00;99.90
20366;DHT22;10341;49.894;8.822;2024-01-30T09:10:45;4.70;99.90
20366;DHT22;10341;49.894;8.822;2024-01-30T09:16:05;4.90;99.90
20366;DHT22;10341;49.894;8.822;2024-01-30T09:21:25;4.60;99.90
20366;DHT22;10341;49.894;8.822;2024-01-30T09:26:44;4.40;99.90
20366;DHT22;10341;49.894;8.822;2024-01-30T09:32:04;4.70;99.90
20366;DHT22;10341;49.894;8.822;2024-01-30T09:37:25;4.80;99.90
20366;DHT22;10341;49.894;8.822;2024-01-30T09:42:47;4.70;99.90
20366;DHT22;10341;49.894;8.822;2024-01-30T09:48:08;4.50;99.90
20366;DHT22;10341;49.894;8.822;2024-01-30T09:53:28;4.40;99.90
20366;DHT22;10341;49.894;8.822;2024-01-30T09:58:47;4.70;99.90
20366;DHT22;10341;49.894;8.822;2024-01-30T10:04:07;5.00;99.90
20366;DHT22;10341;49.894;8.822;2024-01-30T10:09:26;6.40;99.90
20366;DHT22;10341;49.894;8.822;2024-01-30T10:14:46;8.20;99.90
20366;DHT22;10341;49.894;8.822;2024-01-30T10:20:05;9.10;99.90
20366;DHT22;10341;49.894;8.822;2024-01-30T10:25:25;9.90;99.90
20366;DHT22;10341;49.894;8.822;2024-01-30T10:30:45;9.20;99.90
20366;DHT22;10341;49.894;8.822;2024-01-30T10:36:05;8.30;99.90
20366;DHT22;10341;49.894;8.822;2024-01-30T10:41:28;8.10;99.90
20366;DHT22;10341;49.894;8.822;2024-01-30T10:46:58;8.20;99.90
20366;DHT22;10341;49.894;8.822;2024-01-30T10:52:20;8.00;99.90
20366;DHT22;10341;49.894;8.822;2024-01-30T10:57:40;7.90;99.90
20366;DHT22;10341;49.894;8.822;2024-01-30T11:03:00;8.30;99.90
20366;DHT22;10341;49.894;8.822;2024-01-30T11:08:24;8.90;99.90
20366;DHT22;10341;49.894;8.822;2024-01-30T11:13:44;9.50;99.90
20366;DHT22;10341;49.894;8.822;2024-01-30T11:19:03;9.40;99.90
20366;DHT22;10341;49.894;8.822;2024-01-30T11:24:24;9.60;99.90
20366;DHT22;10341;49.894;8.822;2024-01-30T11:29:43;10.00;99.90
20366;DHT22;10341;49.894;8.822;2024-01-30T11:35:08;10.10;99.90
20366;DHT22;10341;49.894;8.822;2024-01-30T11:40:31;11.70;99.90
20366;DHT22;10341;49.894;8.822;2024-01-30T11:45:51;13.90;99.90
20366;DHT22;10341;49.894;8.822;2024-01-30T11:51:13;15.30;99.90
20366;DHT22;10341;49.894;8.822;2024-01-30T11:56:32;15.30;99.90
20366;DHT22;10341;49.894;8.822;2024-01-30T12:01:52;16.50;99.90
20366;DHT22;10341;49.894;8.822;2024-01-30T12:07:12;16.60;99.50
20366;DHT22;10341;49.894;8.822;2024-01-30T12:12:35;15.70;99.90
20366;DHT22;10341;49.894;8.822;2024-01-30T12:18:07;14.20;99.90
20366;DHT22;10341;49.894;8.822;2024-01-30T12:23:27;12.60;99.90
20366;DHT22;10341;49.894;8.822;2024-01-30T12:28:51;12.30;99.90
20366;DHT22;10341;49.894;8.822;2024-01-30T12:34:14;11.80;99.90
20366;DHT22;10341;49.894;8.822;2024-01-30T12:39:35;11.70;99.90
20366;DHT22;10341;49.894;8.822;2024-01-30T12:44:57;11.40;99.90
20366;DHT22;10341;49.894;8.822;2024-01-30T12:50:17;11.40;99.90
20366;DHT22;10341;49.894;8.822;2024-01-30T12:55:38;11.90;99.90
20366;DHT22;10341;49.894;8.822;2024-01-30T13:00:57;11.50;99.90
20366;DHT22;10341;49.894;8.822;2024-01-30T13:06:16;11.50;99.90
20366;DHT22;10341;49.894;8.822;2024-01-30T13:11:35;11.60;99.90
20366;DHT22;10341;49.894;8.822;2024-01-30T13:16:54;11.70;99.90
20366;DHT22;10341;49.894;8.822;2024-01-30T13:22:14;11.80;99.90
20366;DHT22;10341;49.894;8.822;2024-01-30T13:27:33;11.90;99.90
20366;DHT22;10341;49.894;8.822;2024-01-30T13:32:53;12.00;99.90
20366;DHT22;10341;49.894;8.822;2024-01-30T13:38:13;11.90;99.90
20366;DHT22;10341;49.894;8.822;2024-01-30T13:43:32;11.90;99.90
20366;DHT22;10341;49.894;8.822;2024-01-30T13:48:52;11.90;99.90
20366;DHT22;10341;49.894;8.822;2024-01-30T13:54:11;11.70;99.90
20366;DHT22;10341;49.894;8.822;2024-01-30T13:59:30;11.70;99.90
20366;DHT22;10341;49.894;8.822;2024-01-30T14:04:49;11.40;99.90
20366;DHT22;10341;49.894;8.822;2024-01-30T14:10:09;11.40;99.90
20366;DHT22;10341;49.894;8.822;2024-01-30T14:15:30;11.40;99.90
20366;DHT22;10341;49.894;8.822;2024-01-30T14:20:49;11.50;99.90
20366;DHT22;10341;49.894;8.822;2024-01-30T14:26:09;11.40;99.90
20366;DHT22;10341;49.894;8.822;2024-01-30T14:31:28;11.40;99.90
20366;DHT22;10341;49.894;8.822;2024-01-30T14:36:47;11.30;99.90
20366;DHT22;10341;49.894;8.822;2024-01-30T14:42:07;11.20;99.90
20366;DHT22;10341;49.894;8.822;2024-01-30T14:47:26;11.10;99.90
20366;DHT22;10341;49.894;8.822;2024-01-30T14:52:45;11.00;99.90
20366;DHT22;10341;49.894;8.822;2024-01-30T14:58:05;10.90;99.90
20366;DHT22;10341;49.894;8.822;2024-01-30T15:03:26;10.90;99.90
20366;DHT22;10341;49.894;8.822;2024-01-30T15:08:46;10.80;99.90
20366;DHT22;10341;49.894;8.822;2024-01-30T15:14:04;10.80;99.90
20366;DHT22;10341;49.894;8.822;2024-01-30T15:19:24;10.70;99.90
20366;DHT22;10341;49.894;8.822;2024-01-30T15:24:43;10.60;99.90
20366;DHT22;10341;49.894;8.822;2024-01-30T15:30:02;10.50;99.90
20366;DHT22;10341;49.894;8.822;2024-01-30T15:35:22;10.40;99.90
20366;DHT22;10341;49.894;8.822;2024-01-30T15:40:41;10.20;99.90
20366;DHT22;10341;49.894;8.822;2024-01-30T15:46:00;10.00;99.90
20366;DHT22;10341;49.894;8.822;2024-01-30T15:51:22;9.80;99.90
20366;DHT22;10341;49.894;8.822;2024-01-30T15:56:42;9.50;99.90
20366;DHT22;10341;49.894;8.822;2024-01-30T16:02:02;9.30;99.90
20366;DHT22;10341;49.894;8.822;2024-01-30T16:07:22;9.10;99.90
20366;DHT22;10341;49.894;8.822;2024-01-30T16:12:45;8.90;99.90
20366;DHT22;10341;49.894;8.822;2024-01-30T16:18:05;8.80;99.90
20366;DHT22;10341;49.894;8.822;2024-01-30T16:23:24;8.60;99.90
20366;DHT22;10341;49.894;8.822;2024-01-30T16:28:44;8.60;99.90
20366;DHT22;10341;49.894;8.822;2024-01-30T16:34:04;8.50;99.90
20366;DHT22;10341;49.894;8.822;2024-01-30T16:39:23;8.40;99.90
20366;DHT22;10341;49.894;8.822;2024-01-30T16:44:42;8.30;99.90
20366;DHT22;10341;49.894;8.822;2024-01-30T16:50:04;8.30;99.90
20366;DHT22;10341;49.894;8.822;2024-01-30T16:55:23;8.30;99.90
20366;DHT22;10341;49.894;8.822;2024-01-30T17:00:45;8.20;99.90
20366;DHT22;10341;49.894;8.822;2024-01-30T17:06:04;8.10;99.90
20366;DHT22;10341;49.894;8.822;2024-01-30T17:11:24;8.00;99.90
20366;DHT22;10341;49.894;8.822;2024-01-30T17:16:43;8.00;99.90
20366;DHT22;10341;49.894;8.822;2024-01-30T17:22:04;7.90;99.90
20366;DHT22;10341;49.894;8.822;2024-01-30T17:27:25;7.80;99.90
20366;DHT22;10341;49.894;8.822;2024-01-30T17:32:45;7.70;99.90
20366;DHT22;10341;49.894;8.822;2024-01-30T17:38:04;7.70;99.90
20366;DHT22;10341;49.894;8.822;2024-01-30T17:43:23;7.60;99.90
20366;DHT22;10341;49.894;8.822;2024-01-30T17:48:42;7.60;99.90
20366;DHT22;10341;49.894;8.822;2024-01-30T17:54:02;7.60;99.90
20366;DHT22;10341;49.894;8.822;2024-01-30T17:59:21;7.50;99.90
20366;DHT22;10341;49.894;8.822;2024-01-30T18:04:42;7.50;99.90
20366;DHT22;10341;49.894;8.822;2024-01-30T18:10:01;7.60;99.90
20366;DHT22;10341;49.894;8.822;2024-01-30T18:15:20;8.00;99.90
20366;DHT22;10341;49.894;8.822;2024-01-30T18:20:40;8.50;99.90
20366;DHT22;10341;49.894;8.822;2024-01-30T18:25:59;8.90;99.90
20366;DHT22;10341;49.894;8.822;2024-01-30T18:31:18;9.10;99.90
20366;DHT22;10341;49.894;8.822;2024-01-30T18:36:38;9.50;99.90
20366;DHT22;10341;49.894;8.822;2024-01-30T18:41:59;9.80;99.90
20366;DHT22;10341;49.894;8.822;2024-01-30T18:47:18;10.00;99.90
20366;DHT22;10341;49.894;8.822;2024-01-30T18:52:38;10.00;99.90
20366;DHT22;10341;49.894;8.822;2024-01-30T18:57:57;10.00;99.90
20366;DHT22;10341;49.894;8.822;2024-01-30T19:03:17;10.10;99.90
20366;DHT22;10341;49.894;8.822;2024-01-30T19:08:40;10.10;99.90
20366;DHT22;10341;49.894;8.822;2024-01-30T19:14:00;10.20;99.90
20366;DHT22;10341;49.894;8.822;2024-01-30T19:19:19;10.10;99.90
20366;DHT22;10341;49.894;8.822;2024-01-30T19:24:38;10.20;99.90
20366;DHT22;10341;49.894;8.822;2024-01-30T19:29:57;10.20;99.90
20366;DHT22;10341;49.894;8.822;2024-01-30T19:35:16;10.30;99.90
20366;DHT22;10341;49.894;8.822;2024-01-30T19:40:36;10.20;99.90
20366;DHT22;10341;49.894;8.822;2024-01-30T19:45:56;10.30;99.90
20366;DHT22;10341;49.894;8.822;2024-01-30T19:51:15;10.30;99.90
20366;DHT22;10341;49.894;8.822;2024-01-30T19:56:34;10.20;99.90
20366;DHT22;10341;49.894;8.822;2024-01-30T20:01:54;10.30;99.90
20366;DHT22;10341;49.894;8.822;2024-01-30T20:07:13;10.20;99.90
20366;DHT22;10341;49.894;8.822;2024-01-30T20:12:34;10.30;99.90
20366;DHT22;10341;49.894;8.822;2024-01-30T20:17:53;10.20;99.90
20366;DHT22;10341;49.894;8.822;2024-01-30T20:23:12;10.10;99.90
20366;DHT22;10341;49.894;8.822;2024-01-30T20:28:31;10.10;99.90
20366;DHT22;10341;49.894;8.822;2024-01-30T20:33:53;10.10;99.90
20366;DHT22;10341;49.894;8.822;2024-01-30T20:39:13;10.00;99.90
20366;DHT22;10341;49.894;8.822;2024-01-30T20:44:34;10.00;99.90
20366;DHT22;10341;49.894;8.822;2024-01-30T20:49:54;10.00;99.90
20366;DHT22;10341;49.894;8.822;2024-01-30T20:55:13;10.00;99.90
20366;DHT22;10341;49.894;8.822;2024-01-30T21:00:32;10.00;99.90
20366;DHT22;10341;49.894;8.822;2024-01-30T21:05:51;10.00;99.90
20366;DHT22;10341;49.894;8.822;2024-01-30T21:11:10;9.90;99.90
20366;DHT22;10341;49.894;8.822;2024-01-30T21:16:30;9.90;99.90
20366;DHT22;10341;49.894;8.822;2024-01-30T21:21:50;9.90;99.90
20366;DHT22;10341;49.894;8.822;2024-01-30T21:27:09;9.90;99.90
20366;DHT22;10341;49.894;8.822;2024-01-30T21:32:28;9.90;99.90
20366;DHT22;10341;49.894;8.822;2024-01-30T21:37:47;9.90;99.90
20366;DHT22;10341;49.894;8.822;2024-01-30T21:43:06;9.90;99.90
20366;DHT22;10341;49.894;8.822;2024-01-30T21:48:26;9.80;99.90
20366;DHT22;10341;49.894;8.822;2024-01-30T21:53:46;9.80;99.90
20366;DHT22;10341;49.894;8.822;2024-01-30T21:59:05;9.80;99.90
20366;DHT22;10341;49.894;8.822;2024-01-30T22:04:25;9.80;99.90
20366;DHT22;10341;49.894;8.822;2024-01-30T22:09:44;9.90;99.90
20366;DHT22;10341;49.894;8.822;2024-01-30T22:15:04;9.80;99.90
20366;DHT22;10341;49.894;8.822;2024-01-30T22:20:23;9.70;99.90
20366;DHT22;10341;49.894;8.822;2024-01-30T22:25:42;9.70;99.90
20366;DHT22;10341;49.894;8.822;2024-01-30T22:31:02;9.60;99.90
20366;DHT22;10341;49.894;8.822;2024-01-30T22:36:21;9.60;99.90
20366;DHT22;10341;49.894;8.822;2024-01-30T22:41:41;9.50;99.90
20366;DHT22;10341;49.894;8.822;2024-01-30T22:47:00;9.50;99.90
20366;DHT22;10341;49.894;8.822;2024-01-30T22:52:20;9.50;99.90
20366;DHT22;10341;49.894;8.822;2024-01-30T22:57:39;9.50;99.90
20366;DHT22;10341;49.894;8.822;2024-01-30T23:02:58;9.40;99.90
20366;DHT22;10341;49.894;8.822;2024-01-30T23:08:18;9.40;99.90
20366;DHT22;10341;49.894;8.822;2024-01-30T23:13:38;9.30;99.90
20366;DHT22;10341;49.894;8.822;2024-01-30T23:18:58;9.30;99.90
20366;DHT22;10341;49.894;8.822;2024-01-30T23:24:18;9.30;99.90
20366;DHT22;10341;49.894;8.822;2024-01-30T23:29:38;9.40;99.90
20366;DHT22;10341;49.894;8.822;2024-01-30T23:34:57;9.40;99.90
20366;DHT22;10341;49.894;8.822;2024-01-30T23:40:16;9.40;99.90
20366;DHT22;10341;49.894;8.822;2024-01-30T23:45:36;9.40;99.90
20366;DHT22;10341;49.894;8.822;2024-01-30T23:50:55;9.60;99.90
20366;DHT22;10341;49.894;8.822;2024-01-30T23:56:14;9.80;99.90
